Time;durP1;ratioP1;P1;durP2;ratioP2;P2;SDS_P1;SDS_P2;PMS_P1;PMS_P2;Temp;Humidity;BMP_temperature;BMP_pressure;BME280_temperature;BME280_humidity;BME280_pressure;Samples;Min_cycle;Max_cycle;Signal;HPM_P1;HPM_P2
2024/03/10 00:01:33;;;;;;;17.73;11.50;;;;;11.20;96530.00;;;;4862000;29;20183;-63
2024/03/10 00:03:59;;;;;;;16.98;10.95;;;;;11.30;96527.00;;;;4862153;29;20518;-66
2024/03/10 00:06:26;;;;;;;15.68;10.40;;;;;11.30;96525.00;;;;4862148;29;20069;-66
2024/03/10 00:08:53;;;;;;;16.23;10.77;;;;;11.20;96531.00;;;;4862050;29;20128;-66
2024/03/10 00:11:20;;;;;;;16.25;10.73;;;;;11.20;96537.00;;;;4862054;29;20120;-66
2024/03/10 00:13:48;;;;;;;15.88;10.48;;;;;11.30;96533.00;;;;4861911;29;20045;-66
2024/03/10 00:16:16;;;;;;;15.30;10.63;;;;;11.40;96541.00;;;;4862053;29;20053;-66
2024/03/10 00:18:42;;;;;;;18.75;10.23;;;;;11.40;96548.00;;;;4860862;29;20110;-66
2024/03/10 00:21:09;;;;;;;16.80;10.52;;;;;11.40;96542.00;;;;4861872;29;20132;-66
2024/03/10 00:23:37;;;;;;;14.32;9.88;;;;;11.20;96542.00;;;;4861838;29;20090;-66
2024/03/10 00:26:05;;;;;;;14.65;9.98;;;;;11.10;96545.00;;;;4860860;29;20058;-66
2024/03/10 00:28:36;;;;;;;15.13;9.80;;;;;11.00;96542.00;;;;4868462;29;20090;-65
2024/03/10 00:31:03;;;;;;;14.52;9.65;;;;;10.90;96552.00;;;;4861528;29;20129;-65
2024/03/10 00:33:30;;;;;;;13.23;8.80;;;;;10.90;96555.00;;;;4861838;29;20041;-65
2024/03/10 00:35:57;;;;;;;14.68;9.88;;;;;10.90;96556.00;;;;4861591;29;20045;-65
2024/03/10 00:38:24;;;;;;;15.68;9.93;;;;;10.90;96556.00;;;;4861624;29;20045;-65
2024/03/10 00:40:51;;;;;;;15.20;9.65;;;;;11.10;96559.00;;;;4861501;29;20045;-65
2024/03/10 00:43:17;;;;;;;14.35;9.88;;;;;11.20;96559.00;;;;4861440;29;20056;-66
2024/03/10 00:45:44;;;;;;;13.18;9.55;;;;;11.20;96564.00;;;;4860136;29;20081;-65
2024/03/10 00:48:11;;;;;;;15.23;10.35;;;;;11.20;96564.00;;;;4861542;29;20051;-65
2024/03/10 00:50:40;;;;;;;13.77;9.80;;;;;11.30;96560.00;;;;4861245;29;20045;-66
2024/03/10 00:53:06;;;;;;;14.23;10.07;;;;;11.40;96559.00;;;;4861514;29;20049;-65
2024/03/10 00:55:33;;;;;;;18.90;9.70;;;;;11.50;96562.00;;;;4860300;29;20057;-65
2024/03/10 00:58:00;;;;;;;15.82;9.90;;;;;11.50;96569.00;;;;4855726;29;20049;-66
2024/03/10 01:00:28;;;;;;;14.18;9.68;;;;;11.50;96558.00;;;;4876735;29;20081;-65
2024/03/10 01:02:55;;;;;;;14.02;9.23;;;;;11.50;96565.00;;;;4863188;29;20056;-65
2024/03/10 01:05:24;;;;;;;14.13;9.88;;;;;11.50;96563.00;;;;4861432;29;20049;-65
2024/03/10 01:07:51;;;;;;;12.13;8.85;;;;;11.30;96550.00;;;;4861891;29;20049;-66
2024/03/10 01:10:17;;;;;;;16.55;9.80;;;;;11.10;96557.00;;;;4862005;29;20080;-65
2024/03/10 01:12:44;;;;;;;15.52;9.90;;;;;11.00;96546.00;;;;4875488;29;20101;-66
2024/03/10 01:15:11;;;;;;;13.65;9.40;;;;;10.90;96542.00;;;;4861037;29;20050;-65
2024/03/10 01:17:38;;;;;;;15.63;9.82;;;;;10.90;96543.00;;;;4861226;29;20045;-65
2024/03/10 01:20:06;;;;;;;14.57;9.82;;;;;10.90;96544.00;;;;4861172;29;20049;-65
2024/03/10 01:22:34;;;;;;;14.77;10.00;;;;;10.90;96538.00;;;;4874998;29;20109;-65
2024/03/10 01:25:00;;;;;;;12.60;9.35;;;;;10.90;96538.00;;;;4861019;29;20116;-65
2024/03/10 01:27:27;;;;;;;15.30;10.10;;;;;10.80;96532.00;;;;4856504;29;20077;-65
2024/03/10 01:29:54;;;;;;;14.80;9.77;;;;;10.80;96531.00;;;;4872316;29;20152;-65
2024/03/10 01:32:20;;;;;;;13.27;9.00;;;;;10.80;96513.00;;;;4861563;29;20144;-65
2024/03/10 01:34:48;;;;;;;15.68;9.43;;;;;10.80;96507.00;;;;4861205;29;20431;-66
2024/03/10 01:37:17;;;;;;;15.35;9.60;;;;;10.80;96498.00;;;;4860583;29;20045;-65
2024/03/10 01:39:44;;;;;;;14.38;9.77;;;;;10.70;96483.00;;;;4860840;29;20406;-65
2024/03/10 01:42:11;;;;;;;13.30;9.20;;;;;10.60;96474.00;;;;4860449;29;20049;-66
2024/03/10 01:44:37;;;;;;;14.70;9.45;;;;;10.50;96464.00;;;;4860423;29;20077;-66
2024/03/10 01:47:04;;;;;;;13.95;10.20;;;;;10.50;96461.00;;;;4860444;29;20451;-66
2024/03/10 01:49:33;;;;;;;15.52;9.90;;;;;10.50;96467.00;;;;4860574;29;20502;-65
2024/03/10 01:52:02;;;;;;;13.63;9.55;;;;;10.50;96469.00;;;;4860295;29;20562;-65
2024/03/10 01:54:33;;;;;;;14.52;9.82;;;;;10.50;96465.00;;;;4860402;29;20048;-65
2024/03/10 01:57:00;;;;;;;14.32;9.95;;;;;10.50;96470.00;;;;4871989;29;20088;-65
2024/03/10 01:59:27;;;;;;;13.93;9.60;;;;;10.50;96460.00;;;;4853951;29;20041;-66
2024/03/10 02:01:54;;;;;;;12.95;9.18;;;;;10.70;96460.00;;;;4858751;29;20050;-65
2024/03/10 02:04:21;;;;;;;13.38;8.88;;;;;10.90;96461.00;;;;4874442;29;20054;-66
2024/03/10 02:06:50;;;;;;;16.02;9.38;;;;;11.00;96455.00;;;;4860264;29;20053;-65
2024/03/10 02:09:18;;;;;;;13.93;9.07;;;;;11.10;96461.00;;;;4860113;29;20053;-65
2024/03/10 02:11:45;;;;;;;11.98;8.85;;;;;11.00;96441.00;;;;4874067;29;20097;-65
2024/03/10 02:14:12;;;;;;;12.75;8.73;;;;;10.90;96442.00;;;;4860122;29;20068;-65
2024/03/10 02:16:38;;;;;;;15.43;8.48;;;;;10.80;96439.00;;;;4874188;29;20049;-66
2024/03/10 02:19:06;;;;;;;14.98;9.43;;;;;10.70;96439.00;;;;4860069;29;20064;-65
2024/03/10 02:21:33;;;;;;;12.68;8.73;;;;;10.80;96436.00;;;;4874060;29;20106;-66
2024/03/10 02:24:25;;;;;;;11.68;8.57;;;;;10.90;96438.00;;;;4860007;29;20068;-65
2024/03/10 02:26:53;;;;;;;13.10;9.05;;;;;11.00;96434.00;;;;4858375;29;20050;-66
2024/03/10 02:29:21;;;;;;;12.38;8.80;;;;;11.00;96428.00;;;;4852710;29;20391;-65
2024/03/10 02:48:23;;;;;;;10.32;7.47;;;;;10.60;96388.00;;;;4859703;29;20065;-66
2024/03/10 02:50:50;;;;;;;12.55;7.80;;;;;10.50;96385.00;;;;4859531;29;20053;-66
2024/03/10 02:53:17;;;;;;;10.50;7.60;;;;;10.50;96389.00;;;;4859721;29;20398;-66
2024/03/10 02:55:45;;;;;;;10.43;7.10;;;;;10.50;96375.00;;;;4862355;29;20084;-65
2024/03/10 02:58:12;;;;;;;12.95;8.02;;;;;10.40;96380.00;;;;4844697;29;20045;-65
2024/03/10 03:00:39;;;;;;;11.70;7.80;;;;;10.50;96377.00;;;;4875897;29;20304;-66
2024/03/10 03:03:08;;;;;;;10.07;7.45;;;;;10.50;96368.00;;;;4860753;29;20105;-66
2024/03/10 03:05:36;;;;;;;11.35;7.70;;;;;10.50;96364.00;;;;4873826;29;20541;-65
2024/03/10 03:08:03;;;;;;;9.98;7.63;;;;;10.50;96363.00;;;;4859502;29;20128;-65
2024/03/10 03:10:30;;;;;;;11.02;7.60;;;;;10.50;96356.00;;;;4859404;29;20053;-66
2024/03/10 03:12:57;;;;;;;10.75;7.10;;;;;10.40;96343.00;;;;4873707;29;20490;-65
2024/03/10 03:15:23;;;;;;;10.88;7.22;;;;;10.30;96323.00;;;;4859272;29;20066;-66
2024/03/10 03:17:50;;;;;;;9.27;7.00;;;;;10.30;96332.00;;;;4858198;29;20081;-66
2024/03/10 03:20:17;;;;;;;9.70;6.85;;;;;10.20;96347.00;;;;4859223;29;20411;-66
2024/03/10 03:22:46;;;;;;;12.55;8.02;;;;;10.30;96356.00;;;;4859365;29;20391;-66
2024/03/10 03:25:13;;;;;;;11.52;7.07;;;;;10.40;96354.00;;;;4873314;29;20054;-66
2024/03/10 03:27:41;;;;;;;10.50;7.93;;;;;10.40;96341.00;;;;4851755;29;20061;-66
2024/03/10 03:30:08;;;;;;;9.48;6.85;;;;;10.40;96320.00;;;;4872434;29;20052;-66
2024/03/10 03:32:34;;;;;;;9.93;7.03;;;;;10.40;96327.00;;;;4857941;29;20506;-66
2024/03/10 03:35:02;;;;;;;8.80;6.85;;;;;10.30;96321.00;;;;4859262;29;20446;-66
2024/03/10 03:37:30;;;;;;;9.63;6.97;;;;;10.30;96320.00;;;;4859336;29;20041;-66
2024/03/10 03:39:57;;;;;;;11.05;7.10;;;;;10.20;96319.00;;;;4858023;29;20053;-65
2024/03/10 03:42:24;;;;;;;9.55;6.95;;;;;10.20;96330.00;;;;4873364;29;20063;-66
2024/03/10 03:44:50;;;;;;;12.75;7.85;;;;;10.20;96320.00;;;;4859006;29;20046;-66
2024/03/10 03:47:17;;;;;;;12.52;8.07;;;;;10.20;96314.00;;;;4859525;29;20045;-66
2024/03/10 03:49:47;;;;;;;11.25;7.28;;;;;10.10;96309.00;;;;4876733;29;20064;-66
2024/03/10 03:52:13;;;;;;;12.73;6.93;;;;;10.00;96301.00;;;;4876543;29;20049;-65
2024/03/10 03:54:41;;;;;;;10.70;6.97;;;;;10.00;96299.00;;;;4876719;29;20041;-65
2024/03/10 03:57:08;;;;;;;9.50;6.65;;;;;10.00;96293.00;;;;4858727;29;20163;-66
2024/03/10 03:59:38;;;;;;;12.45;7.10;;;;;9.90;96265.00;;;;4857453;29;20384;-66
2024/03/10 04:02:05;;;;;;;8.65;6.45;;;;;9.90;96260.00;;;;4862132;29;20097;-65
2024/03/10 04:04:32;;;;;;;11.15;7.18;;;;;9.80;96251.00;;;;4861114;29;20045;-65
2024/03/10 04:06:58;;;;;;;10.85;7.82;;;;;9.80;96263.00;;;;4862238;29;20077;-66
2024/03/10 04:09:25;;;;;;;11.23;7.25;;;;;9.70;96264.00;;;;4876428;29;20053;-66
2024/03/10 04:11:52;;;;;;;8.95;6.72;;;;;9.70;96254.00;;;;4861891;29;20054;-66
2024/03/10 04:14:20;;;;;;;9.80;6.50;;;;;9.70;96249.00;;;;4862199;29;20407;-66
2024/03/10 04:16:47;;;;;;;12.85;7.78;;;;;9.70;96246.00;;;;4862038;29;20101;-66
2024/03/10 04:19:13;;;;;;;10.40;7.00;;;;;9.70;96244.00;;;;4862120;29;20053;-65
2024/03/10 04:21:40;;;;;;;11.55;7.32;;;;;9.70;96233.00;;;;4860636;29;20054;-66
2024/03/10 04:24:09;;;;;;;12.52;6.95;;;;;9.80;96228.00;;;;4861985;29;20052;-65
2024/03/10 04:26:43;;;;;;;10.93;7.28;;;;;9.70;96216.00;;;;4860562;29;20132;-65
2024/03/10 04:29:11;;;;;;;9.15;6.45;;;;;9.70;96210.00;;;;4854246;29;20128;-66
2024/03/10 04:31:38;;;;;;;10.13;7.00;;;;;9.70;96201.00;;;;4861694;29;20045;-65
2024/03/10 04:34:14;;;;;;;11.73;7.18;;;;;9.70;96209.00;;;;4860679;29;20052;-65
2024/03/10 04:36:40;;;;;;;10.40;7.28;;;;;9.60;96203.00;;;;4861773;29;20110;-66
2024/03/10 04:39:09;;;;;;;11.65;6.90;;;;;9.60;96196.00;;;;4860739;29;20077;-65
2024/03/10 04:41:36;;;;;;;11.70;7.07;;;;;9.60;96181.00;;;;4875582;29;20073;-66
2024/03/10 04:44:04;;;;;;;10.23;6.93;;;;;9.50;96179.00;;;;4861820;29;20097;-66
2024/03/10 04:46:30;;;;;;;9.65;6.60;;;;;9.50;96170.00;;;;4860632;29;20053;-65
2024/03/10 04:48:57;;;;;;;7.72;6.30;;;;;9.50;96167.00;;;;4861912;29;20083;-65
2024/03/10 04:51:27;;;;;;;9.55;6.68;;;;;9.50;96165.00;;;;4860696;29;20069;-66
2024/03/10 04:53:53;;;;;;;10.35;6.10;;;;;9.60;96163.00;;;;4863426;29;20060;-65
2024/03/10 04:56:20;;;;;;;10.52;7.18;;;;;9.70;96178.00;;;;4877105;29;20128;-66
2024/03/10 04:58:47;;;;;;;8.98;6.57;;;;;9.90;96201.00;;;;4854423;29;20427;-66
2024/03/10 05:01:19;;;;;;;7.32;5.97;;;;;10.00;96234.00;;;;4863455;29;20136;-66
2024/03/10 05:03:46;;;;;;;10.90;6.95;;;;;10.10;96256.00;;;;4862854;29;20499;-65
2024/03/10 05:06:12;;;;;;;7.53;5.75;;;;;10.10;96277.00;;;;4862623;29;20042;-66
2024/03/10 05:08:41;;;;;;;8.52;6.18;;;;;10.20;96287.00;;;;4862856;29;20049;-66
2024/03/10 05:11:09;;;;;;;9.98;6.95;;;;;10.20;96303.00;;;;4864945;29;20132;-65
2024/03/10 05:13:36;;;;;;;8.85;6.22;;;;;10.30;96286.00;;;;4863162;29;20051;-66
2024/03/10 05:16:03;;;;;;;8.93;6.22;;;;;10.20;96272.00;;;;4861579;29;20050;-66
2024/03/10 05:18:33;;;;;;;9.85;6.00;;;;;10.10;96274.00;;;;4875753;29;20065;-66
2024/03/10 05:20:59;;;;;;;9.55;5.95;;;;;10.00;96293.00;;;;4861184;29;20052;-66
2024/03/10 05:23:27;;;;;;;8.25;6.47;;;;;10.00;96288.00;;;;4861015;29;20067;-66
2024/03/10 05:25:54;;;;;;;9.70;6.35;;;;;10.00;96281.00;;;;4859708;29;20049;-65
2024/03/10 05:28:20;;;;;;;11.55;6.93;;;;;10.00;96281.00;;;;4867953;29;20097;-65
2024/03/10 05:30:47;;;;;;;10.20;6.93;;;;;9.90;96274.00;;;;4861886;29;20053;-66
2024/03/10 05:33:14;;;;;;;11.77;7.00;;;;;9.80;96269.00;;;;4860920;29;20050;-65
2024/03/10 05:35:41;;;;;;;9.88;6.57;;;;;9.80;96282.00;;;;4862491;29;20077;-66
2024/03/10 05:38:07;;;;;;;9.98;6.65;;;;;9.80;96281.00;;;;4861739;29;20053;-66
2024/03/10 05:40:34;;;;;;;10.10;7.38;;;;;9.70;96265.00;;;;4860608;29;20078;-66
2024/03/10 05:43:01;;;;;;;10.50;7.00;;;;;9.70;96250.00;;;;4860784;29;20072;-66
2024/03/10 05:45:27;;;;;;;10.05;7.15;;;;;9.60;96239.00;;;;4860656;29;20045;-66
2024/03/10 05:47:54;;;;;;;11.20;7.70;;;;;9.50;96222.00;;;;4860681;29;20053;-66
2024/03/10 05:50:21;;;;;;;12.25;6.88;;;;;9.50;96208.00;;;;4860405;29;20118;-66
2024/03/10 05:52:48;;;;;;;10.10;6.80;;;;;9.40;96232.00;;;;4874717;29;20076;-65
2024/03/10 05:55:15;;;;;;;10.40;6.72;;;;;9.30;96248.00;;;;4862682;29;20049;-65
2024/03/10 05:57:42;;;;;;;9.95;6.88;;;;;9.30;96287.00;;;;4852690;29;20128;-66
2024/03/10 06:00:14;;;;;;;10.15;7.57;;;;;9.40;96314.00;;;;4859501;29;20184;-66
2024/03/10 06:02:44;;;;;;;10.45;7.35;;;;;9.60;96330.00;;;;4859031;29;20057;-66
2024/03/10 06:05:15;;;;;;;10.00;6.88;;;;;9.80;96330.00;;;;4860115;29;20130;-66
2024/03/10 06:07:43;;;;;;;9.15;7.32;;;;;9.90;96324.00;;;;4860163;29;20057;-66
2024/03/10 06:10:11;;;;;;;11.75;8.45;;;;;9.80;96325.00;;;;4859974;29;20047;-66
2024/03/10 06:12:40;;;;;;;9.38;6.50;;;;;9.80;96320.00;;;;4860022;29;20414;-66
2024/03/10 06:15:10;;;;;;;9.73;7.43;;;;;9.70;96327.00;;;;4860024;29;20037;-66
2024/03/10 06:17:40;;;;;;;13.02;9.23;;;;;9.60;96326.00;;;;4859985;29;20088;-65
2024/03/10 06:25:38;;;;;;;11.82;7.38;;;;;9.60;96330.00;;;;4859624;29;20546;-66
2024/03/10 06:28:05;;;;;;;10.75;8.18;;;;;9.60;96318.00;;;;4850836;29;20070;-66
2024/03/10 06:30:31;;;;;;;13.77;8.15;;;;;9.60;96324.00;;;;4859638;29;20049;-66
2024/03/10 06:32:59;;;;;;;11.18;8.15;;;;;9.60;96336.00;;;;4859821;29;20053;-66
2024/03/10 06:35:26;;;;;;;10.48;7.25;;;;;9.50;96342.00;;;;4859871;29;20495;-66
2024/03/10 06:37:53;;;;;;;12.18;8.20;;;;;9.50;96338.00;;;;4859865;29;20565;-66
2024/03/10 06:40:21;;;;;;;12.57;8.02;;;;;9.40;96327.00;;;;4859577;29;20487;-65
2024/03/10 06:42:48;;;;;;;9.88;7.40;;;;;9.40;96327.00;;;;4859801;29;20132;-66
2024/03/10 06:45:15;;;;;;;12.00;8.80;;;;;9.40;96321.00;;;;4859493;29;20056;-65
2024/03/10 06:47:42;;;;;;;12.65;8.25;;;;;9.40;96326.00;;;;4859803;29;20042;-66
2024/03/10 06:50:09;;;;;;;10.82;8.07;;;;;9.40;96320.00;;;;4859674;29;20082;-66
2024/03/10 06:52:37;;;;;;;12.88;8.10;;;;;9.40;96320.00;;;;4842971;29;20052;-66
2024/03/10 06:55:06;;;;;;;13.02;8.68;;;;;9.40;96335.00;;;;4873652;29;20049;-66
2024/03/10 06:57:33;;;;;;;12.52;8.30;;;;;9.50;96350.00;;;;4852955;29;20081;-66
2024/03/10 07:00:00;;;;;;;10.93;7.80;;;;;9.50;96341.00;;;;4857512;29;20045;-66
2024/03/10 07:02:28;;;;;;;11.65;8.07;;;;;9.60;96325.00;;;;4859344;29;20073;-65
2024/03/10 07:04:56;;;;;;;11.95;8.43;;;;;9.60;96306.00;;;;4859520;29;20061;-66
2024/03/10 07:07:26;;;;;;;16.40;11.93;;;;;9.50;96281.00;;;;4859357;29;20053;-66
2024/03/10 07:09:53;;;;;;;15.50;10.00;;;;;9.50;96279.00;;;;4859321;29;20049;-66
2024/03/10 07:12:20;;;;;;;12.80;8.90;;;;;9.50;96292.00;;;;4859116;29;20571;-65
2024/03/10 07:14:47;;;;;;;12.00;8.10;;;;;9.50;96318.00;;;;4873792;29;20049;-66
2024/03/10 07:17:15;;;;;;;13.10;8.57;;;;;9.50;96327.00;;;;4858246;29;20144;-66
2024/03/10 07:19:42;;;;;;;13.18;8.00;;;;;9.50;96319.00;;;;4859442;29;20392;-66
2024/03/10 07:22:09;;;;;;;12.52;8.75;;;;;9.50;96319.00;;;;4857914;29;20148;-66
2024/03/10 07:24:37;;;;;;;12.30;8.05;;;;;9.50;96325.00;;;;4862983;29;20045;-66
2024/03/10 07:27:05;;;;;;;20.17;15.73;;;;;9.40;96309.00;;;;4859541;29;20399;-66
2024/03/10 07:29:33;;;;;;;12.63;9.55;;;;;9.50;96303.00;;;;4871551;29;20053;-66
2024/03/10 07:32:00;;;;;;;15.65;8.90;;;;;9.40;96305.00;;;;4876925;29;20136;-66
2024/03/10 07:34:28;;;;;;;11.73;8.30;;;;;9.50;96290.00;;;;4862813;29;20128;-66
2024/03/10 07:36:55;;;;;;;12.52;9.18;;;;;9.60;96283.00;;;;4861524;29;20057;-66
2024/03/10 07:39:21;;;;;;;21.00;12.15;;;;;9.60;96292.00;;;;4863152;29;20053;-69
2024/03/10 07:41:48;;;;;;;11.80;8.98;;;;;9.80;96288.00;;;;4862116;29;20056;-67
2024/03/10 07:44:15;;;;;;;13.68;9.50;;;;;9.90;96280.00;;;;4861899;29;20156;-67
2024/03/10 07:46:43;;;;;;;14.02;9.27;;;;;10.00;96287.00;;;;4862815;29;20415;-68
2024/03/10 07:49:10;;;;;;;13.82;8.88;;;;;10.10;96289.00;;;;4861638;29;20515;-67
2024/03/10 07:51:37;;;;;;;12.65;9.18;;;;;10.30;96281.00;;;;4860956;29;20050;-67
2024/03/10 07:54:04;;;;;;;19.80;12.85;;;;;10.30;96281.00;;;;4863719;29;20411;-68
2024/03/10 07:56:32;;;;;;;105.88;56.65;;;;;10.30;96283.00;;;;4861491;29;20078;-68
2024/03/10 07:58:59;;;;;;;96.57;54.38;;;;;10.30;96279.00;;;;4854811;29;20101;-68
2024/03/10 08:01:25;;;;;;;60.83;37.10;;;;;10.40;96297.00;;;;4846138;29;20515;-67
2024/03/10 08:03:54;;;;;;;19.45;13.50;;;;;10.60;96311.00;;;;4862621;29;20054;-68
2024/03/10 08:06:21;;;;;;;15.43;11.10;;;;;10.70;96312.00;;;;4876508;29;20487;-67
2024/03/10 08:08:48;;;;;;;13.23;9.82;;;;;10.60;96321.00;;;;4861509;29;20467;-68
2024/03/10 08:11:15;;;;;;;14.13;10.10;;;;;10.60;96330.00;;;;4862080;29;20109;-68
2024/03/10 08:13:44;;;;;;;16.73;9.73;;;;;10.70;96327.00;;;;4861298;29;20060;-67
2024/03/10 08:16:11;;;;;;;11.90;8.70;;;;;10.60;96323.00;;;;4862565;29;20046;-67
2024/03/10 08:18:37;;;;;;;12.25;8.77;;;;;10.60;96319.00;;;;4862374;29;20045;-67
2024/03/10 08:21:04;;;;;;;13.68;9.25;;;;;10.60;96314.00;;;;4876300;29;20041;-68
2024/03/10 08:23:31;;;;;;;16.30;10.20;;;;;10.70;96308.00;;;;4876622;29;20453;-68
2024/03/10 08:26:00;;;;;;;14.25;9.13;;;;;10.70;96312.00;;;;4875233;29;20380;-67
2024/03/10 08:28:29;;;;;;;48.95;38.08;;;;;10.70;96307.00;;;;4854473;29;20395;-68
2024/03/10 08:30:57;;;;;;;17.27;13.18;;;;;10.80;96309.00;;;;4876193;29;20068;-68
2024/03/10 08:33:23;;;;;;;14.68;10.43;;;;;10.90;96325.00;;;;4845856;29;20050;-68
2024/03/10 08:35:50;;;;;;;12.55;9.68;;;;;10.90;96325.00;;;;4876208;29;20046;-68
2024/03/10 08:38:17;;;;;;;12.32;10.60;;;;;10.80;96307.00;;;;4876646;29;20670;-68
2024/03/10 08:40:43;;;;;;;12.65;9.48;;;;;10.90;96307.00;;;;4860468;29;20046;-68
2024/03/10 08:43:10;;;;;;;12.80;9.85;;;;;10.90;96308.00;;;;4876100;29;20081;-68
2024/03/10 08:45:38;;;;;;;15.25;11.35;;;;;10.90;96307.00;;;;4860395;29;20138;-68
2024/03/10 08:48:09;;;;;;;14.13;10.77;;;;;10.90;96295.00;;;;4875848;29;20054;-67
2024/03/10 08:50:36;;;;;;;19.30;12.00;;;;;10.90;96292.00;;;;4860155;29;20053;-69
2024/03/10 08:53:06;;;;;;;20.00;13.30;;;;;11.00;96289.00;;;;4860530;29;20086;-68
2024/03/10 08:55:33;;;;;;;16.80;11.25;;;;;11.00;96293.00;;;;4860555;29;20543;-68
2024/03/10 08:58:00;;;;;;;19.55;11.95;;;;;11.00;96289.00;;;;4858458;29;20046;-68
2024/03/10 09:00:26;;;;;;;13.73;9.85;;;;;11.20;96289.00;;;;4861343;29;20049;-68
2024/03/10 09:02:53;;;;;;;16.80;10.57;;;;;11.30;96288.00;;;;4875959;29;20410;-68
2024/03/10 09:05:20;;;;;;;14.60;9.38;;;;;11.50;96284.00;;;;4860030;29;20655;-68
2024/03/10 09:07:47;;;;;;;14.00;9.68;;;;;11.50;96281.00;;;;4861496;29;20057;-69
2024/03/10 09:10:14;;;;;;;11.88;9.70;;;;;11.60;96288.00;;;;4875382;29;20058;-68
2024/03/10 09:12:42;;;;;;;12.77;9.70;;;;;11.60;96288.00;;;;4861197;29;20055;-68
2024/03/10 09:15:12;;;;;;;14.70;10.20;;;;;11.60;96287.00;;;;4860191;29;20066;-67
2024/03/10 09:17:41;;;;;;;15.88;10.73;;;;;11.50;96276.00;;;;4861315;29;20133;-67
2024/03/10 09:20:11;;;;;;;19.63;14.73;;;;;11.50;96286.00;;;;4861188;29;20053;-69
2024/03/10 09:22:39;;;;;;;17.00;12.55;;;;;11.50;96294.00;;;;4859785;29;20053;-69
2024/03/10 09:25:07;;;;;;;13.77;10.07;;;;;11.60;96288.00;;;;4875539;29;20061;-67
2024/03/10 09:27:34;;;;;;;17.20;12.90;;;;;11.70;96282.00;;;;4854440;29;20049;-67
2024/03/10 09:30:01;;;;;;;13.40;10.27;;;;;11.70;96297.00;;;;4859322;29;20124;-67
2024/03/10 09:32:27;;;;;;;12.13;10.00;;;;;11.70;96300.00;;;;4860825;29;20418;-67
2024/03/10 09:34:55;;;;;;;14.90;11.27;;;;;11.70;96295.00;;;;4861016;29;20057;-66
2024/03/10 09:37:21;;;;;;;12.13;9.70;;;;;11.70;96296.00;;;;4860783;29;20391;-66
2024/03/10 09:39:53;;;;;;;53.58;30.40;;;;;11.60;96303.00;;;;4860753;29;20472;-67
2024/03/10 09:42:21;;;;;;;13.48;10.52;;;;;11.70;96300.00;;;;4874487;29;20060;-67
2024/03/10 09:44:49;;;;;;;12.77;10.10;;;;;11.70;96306.00;;;;4859162;29;20053;-67
2024/03/10 09:47:18;;;;;;;15.00;10.40;;;;;11.70;96306.00;;;;4874514;29;20128;-67
2024/03/10 09:49:47;;;;;;;13.30;9.75;;;;;11.70;96306.00;;;;4874915;29;20048;-67
2024/03/10 09:52:14;;;;;;;18.23;12.43;;;;;11.60;96314.00;;;;4874314;29;20060;-67
2024/03/10 09:54:40;;;;;;;14.65;10.70;;;;;11.50;96311.00;;;;4860483;29;20117;-67
2024/03/10 09:57:08;;;;;;;13.60;10.30;;;;;11.50;96310.00;;;;4871246;29;20101;-67
2024/03/10 09:59:43;;;;;;;17.35;10.65;;;;;11.50;96315.00;;;;4855209;29;20045;-67
2024/03/10 10:02:24;;;;;;;16.77;12.45;;;;;11.50;96315.00;;;;4874181;29;20049;-67
2024/03/10 10:05:02;;;;;;;14.55;11.10;;;;;11.60;96312.00;;;;4874483;29;20516;-67
2024/03/10 10:07:29;;;;;;;14.00;10.55;;;;;11.70;96314.00;;;;4859350;29;20060;-67
2024/03/10 10:09:58;;;;;;;16.25;11.93;;;;;11.70;96313.00;;;;4859452;29;20696;-67
2024/03/10 10:12:26;;;;;;;16.48;11.15;;;;;11.80;96304.00;;;;4861102;29;20209;-67
2024/03/10 10:14:53;;;;;;;15.75;11.07;;;;;11.70;96301.00;;;;4875490;29;20045;-66
2024/03/10 10:17:22;;;;;;;14.27;10.40;;;;;11.70;96306.00;;;;4860637;29;20056;-68
2024/03/10 10:19:50;;;;;;;17.05;11.00;;;;;11.80;96296.00;;;;4861032;29;20057;-66
2024/03/10 10:22:20;;;;;;;14.05;10.95;;;;;11.80;96301.00;;;;4861444;29;20071;-67
2024/03/10 10:25:03;;;;;;;14.75;11.27;;;;;11.80;96298.00;;;;4861503;29;20053;-66
2024/03/10 10:27:47;;;;;;;17.17;12.60;;;;;11.90;96290.00;;;;4869115;29;20054;-65
2024/03/10 10:30:23;;;;;;;13.00;10.43;;;;;12.00;96285.00;;;;4862682;29;20136;-67
2024/03/10 10:33:05;;;;;;;13.57;10.43;;;;;11.90;96293.00;;;;4876435;29;20122;-67
2024/03/10 10:35:39;;;;;;;14.90;10.30;;;;;12.00;96288.00;;;;4860047;29;20078;-67
2024/03/10 10:38:13;;;;;;;14.85;11.27;;;;;12.10;96293.00;;;;4860029;29;20483;-67
2024/03/10 10:40:44;;;;;;;15.40;10.23;;;;;12.30;96284.00;;;;4859644;29;20132;-67
2024/03/10 10:43:18;;;;;;;15.10;10.55;;;;;12.30;96276.00;;;;4874368;29;20054;-67
2024/03/10 10:45:45;;;;;;;13.98;10.55;;;;;12.20;96272.00;;;;4860518;29;20054;-67
2024/03/10 10:48:12;;;;;;;15.30;10.55;;;;;12.20;96267.00;;;;4860003;29;20529;-66
2024/03/10 10:50:42;;;;;;;13.88;10.82;;;;;12.30;96262.00;;;;4859726;29;20050;-66
2024/03/10 10:53:11;;;;;;;14.18;10.20;;;;;12.40;96260.00;;;;4860115;29;20050;-66
2024/03/10 10:55:39;;;;;;;17.50;10.70;;;;;12.60;96273.00;;;;4859971;29;20048;-66
2024/03/10 10:58:15;;;;;;;15.43;11.60;;;;;12.70;96274.00;;;;4852003;29;20053;-66
2024/03/10 11:00:50;;;;;;;14.63;11.00;;;;;12.70;96273.00;;;;4878959;29;20149;-65
2024/03/10 11:03:18;;;;;;;14.35;10.80;;;;;12.80;96273.00;;;;4865165;29;20516;-66
2024/03/10 11:06:05;;;;;;;16.85;12.27;;;;;12.70;96259.00;;;;4866595;29;20049;-66
2024/03/10 11:08:36;;;;;;;14.32;10.68;;;;;12.80;96248.00;;;;4876214;29;20077;-65
2024/03/10 11:11:03;;;;;;;15.05;11.13;;;;;12.80;96242.00;;;;4889032;29;20046;-66
2024/03/10 11:13:32;;;;;;;15.77;11.10;;;;;12.80;96236.00;;;;4871567;29;20054;-65
2024/03/10 11:16:09;;;;;;;16.10;10.98;;;;;12.90;96250.00;;;;4870691;29;20077;-66
2024/03/10 11:18:39;;;;;;;14.18;10.77;;;;;12.90;96258.00;;;;4885148;29;20049;-66
2024/03/10 11:21:12;;;;;;;15.10;11.55;;;;;13.10;96263.00;;;;4869723;29;20124;-67
2024/03/10 11:23:42;;;;;;;13.13;10.38;;;;;13.20;96260.00;;;;4870644;29;20587;-67
2024/03/10 11:26:15;;;;;;;17.40;12.13;;;;;13.20;96286.00;;;;4867418;29;20118;-68
2024/03/10 11:28:49;;;;;;;17.48;12.88;;;;;13.30;96290.00;;;;4860110;29;20050;-71
2024/03/10 11:31:37;;;;;;;20.48;13.75;;;;;13.30;96289.00;;;;4865326;29;20050;-68
2024/03/10 11:34:07;;;;;;;15.57;11.98;;;;;13.30;96282.00;;;;4888980;23;20501;-66
2024/03/10 11:36:42;;;;;;;21.85;14.57;;;;;13.30;96278.00;;;;4879466;29;20053;-65
2024/03/10 11:39:09;;;;;;;16.58;12.88;;;;;13.30;96298.00;;;;4890687;29;20069;-64
2024/03/10 11:41:39;;;;;;;19.95;13.50;;;;;13.30;96328.00;;;;4886909;29;20136;-63
2024/03/10 11:44:06;;;;;;;20.15;14.88;;;;;13.50;96342.00;;;;4885792;29;20091;-64
2024/03/10 11:46:33;;;;;;;16.30;12.43;;;;;13.70;96355.00;;;;4873355;29;20041;-66
2024/03/10 11:49:01;;;;;;;14.10;11.70;;;;;13.90;96346.00;;;;4873531;29;20054;-67
2024/03/10 11:51:33;;;;;;;16.55;12.32;;;;;14.10;96344.00;;;;4874214;29;20136;-68
2024/03/10 11:54:07;;;;;;;13.40;10.68;;;;;14.20;96344.00;;;;4875887;29;20082;-65
2024/03/10 11:56:34;;;;;;;11.87;10.20;;;;;14.20;96353.00;;;;4877111;29;20101;-68
2024/03/10 11:59:03;;;;;;;17.02;12.00;;;;;14.30;96346.00;;;;4873759;29;20083;-69
2024/03/10 12:01:31;;;;;;;15.27;11.88;;;;;14.60;96341.00;;;;4875920;29;20189;-68
2024/03/10 12:04:03;;;;;;;16.50;12.75;;;;;14.70;96342.00;;;;4879840;29;20109;-67
2024/03/10 12:06:30;;;;;;;16.67;11.75;;;;;14.80;96337.00;;;;4875615;29;20081;-69
2024/03/10 12:08:57;;;;;;;14.98;11.73;;;;;14.80;96336.00;;;;4885753;29;20077;-69
2024/03/10 12:11:27;;;;;;;14.25;11.23;;;;;14.90;96342.00;;;;4883051;29;20057;-67
2024/03/10 12:13:54;;;;;;;14.07;10.80;;;;;15.10;96342.00;;;;4866182;29;20482;-65
2024/03/10 12:16:22;;;;;;;14.20;10.68;;;;;15.00;96349.00;;;;4868974;29;20045;-67
2024/03/10 12:18:51;;;;;;;14.52;11.57;;;;;15.10;96344.00;;;;4856905;29;20087;-64
2024/03/10 12:21:18;;;;;;;14.68;10.82;;;;;15.20;96352.00;;;;4866503;29;20053;-65
2024/03/10 12:23:55;;;;;;;15.23;11.52;;;;;15.30;96355.00;;;;4870382;29;20259;-66
2024/03/10 12:26:43;;;;;;;16.27;11.70;;;;;15.30;96343.00;;;;4873091;29;20105;-65
2024/03/10 12:29:12;;;;;;;14.80;10.65;;;;;15.20;96344.00;;;;4873417;29;20057;-67
2024/03/10 12:31:39;;;;;;;12.07;10.02;;;;;15.00;96346.00;;;;4892409;29;20117;-65
2024/03/10 12:34:07;;;;;;;14.10;10.70;;;;;15.00;96331.00;;;;4877384;29;20088;-65
2024/03/10 12:36:35;;;;;;;16.45;11.50;;;;;15.00;96337.00;;;;4869702;29;20062;-68